createdAt,value
2023-01-26T04:50:18.800Z,39.93
2023-01-26T04:52:46.411Z,40.70
2023-01-26T04:55:14.081Z,38.33
2023-01-26T04:57:41.659Z,40.77
2023-01-26T05:00:12.263Z,41.90
2023-01-26T05:02:40.763Z,41.70
2023-01-26T05:05:09.210Z,44.03
2023-01-26T05:07:38.167Z,40.70
2023-01-26T05:10:06.800Z,41.53
2023-01-26T05:12:34.406Z,40.60
2023-01-26T05:15:02.022Z,42.07
2023-01-26T05:17:29.605Z,41.77
2023-01-26T05:19:57.258Z,40.20
2023-01-26T05:22:24.911Z,42.57
2023-01-26T05:24:53.862Z,42.30
2023-01-26T05:27:24.421Z,39.77
2023-01-26T05:29:53.342Z,43.53
2023-01-26T05:32:22.166Z,42.27
2023-01-26T05:34:49.811Z,44.27
2023-01-26T05:37:17.416Z,40.03
2023-01-26T05:39:45.020Z,40.40
2023-01-26T05:42:14.571Z,42.70
2023-01-26T05:44:42.155Z,40.23
2023-01-26T05:47:09.775Z,42.87
2023-01-26T05:49:38.717Z,41.10
2023-01-26T05:52:09.548Z,37.17
2023-01-26T05:54:37.368Z,40.03
2023-01-26T05:57:05.014Z,40.23
2023-01-26T05:59:34.048Z,39.83
2023-01-26T06:02:02.116Z,40.83
2023-01-26T06:04:30.113Z,41.47
2023-01-26T06:06:59.679Z,51.40
2023-01-26T06:09:27.678Z,42.53
2023-01-26T06:11:55.405Z,44.90
2023-01-26T06:14:23.115Z,42.90
2023-01-26T06:16:52.470Z,43.20
2023-01-26T06:19:20.104Z,56.90
2023-01-26T06:21:47.716Z,49.27
2023-01-26T06:24:15.456Z,65.57
2023-01-26T06:26:43.025Z,43.57
2023-01-26T06:29:10.658Z,98.53
2023-01-26T06:31:39.062Z,65.47
2023-01-26T06:34:08.887Z,45.30
2023-01-26T06:36:36.549Z,44.60
2023-01-26T06:39:05.013Z,44.87
2023-01-26T06:41:32.953Z,58.10
2023-01-26T06:44:00.537Z,54.23
2023-01-26T06:46:28.258Z,68.77
2023-01-26T06:48:55.848Z,57.87
2023-01-26T06:51:56.731Z,49.13
2023-01-26T06:54:24.336Z,68.70
2023-01-26T06:56:52.079Z,61.50
2023-01-26T06:59:19.645Z,48.47
2023-01-26T07:01:49.709Z,47.87
2023-01-26T07:04:18.426Z,48.30
2023-01-26T07:06:46.069Z,61.83
2023-01-26T07:09:15.038Z,81.30
2023-01-26T07:11:42.590Z,88.30
2023-01-26T07:14:10.207Z,65.03
2023-01-26T07:16:37.794Z,61.13
2023-01-26T07:19:05.451Z,63.43
2023-01-26T07:21:33.066Z,67.87
2023-01-26T07:24:00.686Z,67.40
2023-01-26T07:26:29.660Z,83.90
2023-01-26T07:28:57.290Z,44.30
2023-01-26T07:31:25.166Z,65.10
2023-01-26T07:33:52.918Z,67.50
2023-01-26T07:36:20.574Z,49.93
2023-01-26T07:38:48.857Z,66.23
2023-01-26T07:41:16.543Z,46.17
2023-01-26T07:43:45.595Z,57.20
2023-01-26T07:46:13.296Z,71.63
2023-01-26T07:48:41.813Z,49.40
2023-01-26T07:51:10.993Z,148.33
2023-01-26T07:53:39.585Z,78.80
2023-01-26T07:56:13.150Z,98.40
2023-01-26T07:58:41.297Z,235.73
2023-01-26T08:01:12.378Z,83.63
2023-01-26T08:03:40.668Z,112.70
2023-01-26T08:06:12.104Z,190.07
2023-01-26T08:08:42.109Z,83.77
2023-01-26T08:11:10.422Z,59.13
2023-01-26T08:13:38.674Z,56.93
2023-01-26T08:16:11.879Z,188.77
2023-01-26T08:18:41.364Z,78.30
2023-01-26T08:21:09.422Z,70.50
2023-01-26T08:23:37.055Z,96.47
2023-01-26T08:26:05.924Z,65.60
2023-01-26T08:28:34.051Z,77.33
2023-01-26T08:31:05.811Z,104.83
2023-01-26T08:33:34.780Z,135.90
2023-01-26T08:36:04.504Z,52.87
2023-01-26T08:38:32.692Z,96.07
2023-01-26T08:41:00.504Z,63.90
2023-01-26T08:43:28.400Z,41.73
2023-01-26T08:45:55.998Z,59.83
2023-01-26T08:48:24.156Z,48.00
2023-01-26T08:50:55.084Z,100.27
2023-01-26T08:53:24.197Z,41.33
2023-01-26T08:55:52.266Z,94.87
2023-01-26T08:58:20.548Z,90.33
2023-01-26T09:00:49.071Z,40.40
2023-01-26T09:03:16.977Z,47.10
2023-01-26T09:05:44.665Z,40.47
2023-01-26T09:08:12.452Z,40.30
2023-01-26T09:10:41.643Z,99.27
2023-01-26T09:13:10.323Z,84.67
2023-01-26T09:15:39.433Z,72.83
2023-01-26T09:18:07.155Z,59.20
2023-01-26T09:20:34.803Z,71.97
2023-01-26T09:23:02.429Z,136.57
2023-01-26T09:25:30.297Z,61.90
2023-01-26T09:27:59.255Z,75.43
2023-01-26T09:30:26.930Z,44.47
2023-01-26T09:32:58.997Z,52.00
2023-01-26T09:35:26.659Z,42.10
2023-01-26T09:37:54.237Z,36.47
2023-01-26T09:40:27.281Z,41.20
2023-01-26T09:43:08.912Z,40.70
2023-01-26T09:45:43.077Z,38.83
2023-01-26T09:48:25.339Z,42.80
2023-01-26T09:50:59.029Z,41.93
2023-01-26T09:53:36.239Z,40.07
2023-01-26T09:56:04.146Z,39.77
2023-01-26T09:58:37.086Z,40.57
2023-01-26T10:01:05.454Z,37.90
2023-01-26T10:03:42.646Z,39.93
2023-01-26T10:06:17.315Z,36.20
2023-01-26T10:08:45.628Z,36.83
2023-01-26T10:11:20.743Z,39.27
2023-01-26T10:13:55.169Z,37.67
2023-01-26T10:16:24.917Z,37.80
2023-01-26T10:18:58.259Z,37.97
2023-01-26T10:21:31.935Z,38.40
2023-01-26T10:24:01.518Z,41.13
2023-01-26T10:26:32.626Z,38.27
2023-01-26T10:29:01.914Z,38.90
2023-01-26T10:31:32.391Z,39.67
2023-01-26T10:34:03.205Z,36.73
2023-01-26T10:36:32.579Z,37.00
2023-01-26T10:39:06.478Z,37.83
2023-01-26T10:41:34.849Z,37.00
2023-01-26T10:44:05.847Z,38.23
2023-01-26T10:46:36.296Z,36.87
2023-01-26T10:49:15.707Z,38.20
2023-01-26T10:51:45.559Z,38.50
2023-01-26T10:54:21.604Z,38.60
2023-01-26T10:56:52.317Z,36.33
2023-01-26T10:59:34.056Z,37.63
2023-01-26T11:02:03.650Z,37.83
2023-01-26T11:04:31.512Z,36.17
2023-01-26T11:07:26.463Z,34.67
2023-01-26T11:09:54.329Z,34.37
2023-01-26T11:12:25.592Z,32.67
2023-01-26T11:15:06.517Z,35.43
2023-01-26T11:17:39.534Z,35.03
2023-01-26T11:20:29.005Z,35.47
2023-01-26T11:23:04.905Z,35.80
2023-01-26T11:25:39.795Z,33.47
2023-01-26T11:28:25.674Z,33.87
2023-01-26T11:31:06.174Z,35.23
2023-01-26T11:33:42.730Z,33.63
2023-01-26T11:36:16.532Z,34.27
2023-01-26T11:38:51.896Z,35.27
2023-01-26T11:41:33.924Z,36.60
2023-01-26T11:44:26.374Z,37.37
2023-01-26T11:47:06.309Z,36.27
2023-01-26T11:49:52.420Z,33.60
2023-01-26T11:52:33.793Z,36.60
2023-01-26T11:55:18.531Z,39.30
2023-01-26T11:57:59.695Z,38.60
2023-01-26T12:00:38.694Z,37.07
2023-01-26T12:03:18.428Z,38.07
2023-01-26T12:05:51.566Z,41.73
2023-01-26T12:08:24.114Z,40.03
2023-01-26T12:11:22.349Z,40.10
2023-01-26T12:13:57.986Z,41.07
2023-01-26T12:16:34.920Z,40.77
2023-01-26T12:19:13.817Z,41.33
2023-01-26T12:21:46.118Z,39.60
2023-01-26T12:24:48.438Z,41.47
2023-01-26T12:27:16.818Z,37.77
2023-01-26T12:29:52.047Z,36.17
2023-01-26T12:32:19.940Z,35.77
2023-01-26T12:34:49.294Z,35.87
2023-01-26T12:37:36.100Z,35.80
2023-01-26T12:40:15.778Z,34.73
2023-01-26T12:42:50.522Z,35.57
2023-01-26T12:45:22.807Z,35.10
2023-01-26T12:47:54.388Z,38.27
2023-01-26T12:50:28.385Z,37.83
2023-01-26T12:53:00.601Z,36.80
2023-01-26T12:55:33.569Z,38.47
2023-01-26T12:58:04.899Z,34.73
2023-01-26T13:00:35.232Z,33.03
2023-01-26T13:03:06.426Z,33.90
2023-01-26T13:05:37.085Z,34.43
2023-01-26T13:08:48.645Z,32.90
2023-01-26T13:11:47.564Z,34.50
2023-01-26T13:14:37.344Z,34.23
2023-01-26T13:17:55.922Z,33.43
2023-01-26T13:20:29.748Z,34.53
2023-01-26T13:22:59.026Z,36.47
2023-01-26T13:25:32.524Z,37.53
2023-01-26T13:28:01.879Z,36.50
2023-01-26T13:30:44.404Z,38.17
2023-01-26T13:33:16.497Z,34.80
2023-01-26T13:35:46.659Z,34.00
2023-01-26T13:38:21.233Z,36.60
2023-01-26T13:40:50.746Z,36.13
2023-01-26T13:43:27.623Z,34.03
2023-01-26T13:46:07.871Z,36.53
2023-01-26T13:48:45.910Z,38.97
2023-01-26T13:51:19.744Z,37.20
2023-01-26T13:53:58.317Z,38.87
2023-01-26T13:56:29.998Z,36.80
2023-01-26T13:59:10.270Z,36.10
2023-01-26T14:01:46.515Z,33.87
2023-01-26T14:04:16.409Z,35.03
2023-01-26T14:06:48.318Z,35.30
2023-01-26T14:09:17.658Z,35.30
2023-01-26T14:11:48.950Z,37.57
2023-01-26T14:14:24.972Z,34.90
2023-01-26T14:16:52.775Z,36.47
2023-01-26T14:19:22.685Z,33.80
2023-01-26T14:21:53.288Z,33.50
2023-01-26T14:24:27.536Z,36.07
2023-01-26T14:26:55.448Z,36.47
2023-01-26T14:29:25.229Z,32.17
2023-01-26T14:31:54.223Z,31.30
2023-01-26T14:34:24.066Z,31.27
2023-01-26T14:37:06.818Z,29.90
2023-01-26T14:39:35.785Z,32.37
2023-01-26T14:42:04.768Z,33.37
2023-01-26T14:44:32.496Z,32.43
2023-01-26T14:47:05.654Z,30.97
2023-01-26T14:49:43.707Z,34.17
2023-01-26T14:52:25.169Z,32.93
2023-01-26T14:54:56.296Z,34.47
2023-01-26T14:57:26.360Z,32.00
2023-01-26T14:59:56.379Z,30.90
2023-01-26T15:02:25.642Z,32.23
2023-01-26T15:04:59.393Z,33.00
2023-01-26T15:07:35.778Z,32.77
2023-01-26T15:10:21.252Z,31.17
2023-01-26T15:12:57.461Z,31.27
2023-01-26T15:15:29.571Z,35.20
2023-01-26T15:18:06.573Z,32.07
2023-01-26T15:20:45.143Z,34.20
2023-01-26T15:23:23.739Z,35.93
2023-01-26T15:25:53.161Z,31.53
2023-01-26T15:28:25.745Z,32.67
2023-01-26T15:30:56.511Z,34.63
2023-01-26T15:33:47.246Z,34.10
2023-01-26T15:36:30.913Z,33.30
2023-01-26T15:39:01.118Z,33.80
2023-01-26T15:41:31.091Z,35.80
2023-01-26T15:43:59.555Z,37.93
2023-01-26T15:46:27.659Z,39.20
2023-01-26T15:48:55.933Z,39.23
2023-01-26T15:51:23.685Z,52.53
2023-01-26T15:53:51.275Z,44.40
2023-01-26T15:56:18.848Z,41.37
2023-01-26T15:58:48.007Z,37.70
2023-01-26T16:01:21.217Z,39.40
2023-01-26T16:03:49.202Z,39.07
2023-01-26T16:06:22.823Z,36.97
2023-01-26T16:08:50.889Z,38.50
2023-01-26T16:11:19.389Z,37.97
2023-01-26T16:14:02.563Z,40.47
2023-01-26T16:16:31.252Z,39.37
2023-01-26T16:18:58.976Z,38.30
2023-01-26T16:21:30.249Z,37.47
2023-01-26T16:23:58.834Z,37.77
2023-01-26T16:26:27.643Z,36.17
2023-01-26T16:28:57.095Z,37.30
2023-01-26T16:31:27.560Z,37.93
2023-01-26T16:33:55.644Z,36.50
2023-01-26T16:36:24.040Z,35.17
2023-01-26T16:38:51.733Z,35.90
2023-01-26T16:41:25.026Z,35.63
2023-01-26T16:43:57.012Z,37.53
2023-01-26T16:46:25.186Z,39.33
2023-01-26T16:48:53.421Z,36.27
2023-01-26T16:51:25.066Z,35.07
2023-01-26T16:53:53.389Z,36.87
2023-01-26T16:56:21.521Z,34.10
2023-01-26T16:58:49.154Z,35.00
2023-01-26T17:01:23.385Z,35.03
2023-01-26T17:03:51.440Z,34.40
2023-01-26T17:06:21.544Z,35.13
2023-01-26T17:08:50.103Z,33.17
2023-01-26T17:11:19.867Z,34.37
2023-01-26T17:13:48.009Z,35.97
2023-01-26T17:16:17.729Z,33.60
2023-01-26T17:18:47.683Z,31.00
2023-01-26T17:21:17.632Z,31.77
2023-01-26T17:23:45.671Z,32.50
2023-01-26T17:26:17.105Z,32.30
2023-01-26T17:28:45.173Z,33.60
2023-01-26T17:31:17.463Z,33.60
2023-01-26T17:33:47.979Z,33.50
2023-01-26T17:36:17.182Z,35.63
2023-01-26T17:38:45.034Z,33.47
2023-01-26T17:41:12.853Z,33.60
2023-01-26T17:43:40.446Z,33.33
2023-01-26T17:46:11.215Z,32.60
2023-01-26T17:48:39.013Z,34.67
2023-01-26T17:51:09.533Z,33.20
2023-01-26T17:53:38.245Z,34.10
2023-01-26T17:56:08.429Z,34.77
2023-01-26T17:58:36.790Z,33.93
2023-01-26T18:01:04.779Z,33.93
2023-01-26T18:03:32.500Z,34.33
2023-01-26T18:06:00.329Z,33.27
2023-01-26T18:08:29.293Z,33.60
2023-01-26T18:11:00.809Z,30.83
2023-01-26T18:13:29.333Z,30.13
2023-01-26T18:15:57.036Z,30.17
2023-01-26T18:18:25.644Z,31.20
2023-01-26T18:20:53.670Z,30.33
2023-01-26T18:23:22.268Z,30.67
2023-01-26T18:25:52.575Z,30.33
2023-01-26T18:28:20.233Z,29.27
2023-01-26T18:30:48.490Z,29.80
2023-01-26T18:33:16.173Z,29.70
2023-01-26T18:35:43.814Z,29.43
2023-01-26T18:38:11.449Z,28.90
2023-01-26T18:40:40.309Z,29.30
2023-01-26T18:43:09.528Z,30.73
2023-01-26T18:45:37.517Z,29.40
2023-01-26T18:48:05.621Z,28.40
2023-01-26T18:50:33.194Z,28.30
2023-01-26T18:53:00.816Z,28.63
2023-01-26T18:55:28.832Z,29.50
2023-01-26T18:57:56.463Z,29.27
2023-01-26T19:00:25.782Z,28.23
2023-01-26T19:02:53.417Z,28.77
2023-01-26T19:05:21.039Z,28.93
2023-01-26T19:07:48.793Z,28.70
2023-01-26T19:10:17.232Z,28.57
2023-01-26T19:12:44.818Z,28.43
2023-01-26T19:15:12.703Z,27.93
2023-01-26T19:17:44.671Z,29.37
2023-01-26T19:20:13.596Z,28.43
2023-01-26T19:22:41.189Z,29.97
2023-01-26T19:25:09.594Z,28.33
2023-01-26T19:27:37.430Z,28.53
2023-01-26T19:30:06.189Z,29.60
2023-01-26T19:32:33.755Z,28.20
2023-01-26T19:35:02.905Z,28.10
2023-01-26T19:37:30.521Z,28.00
2023-01-26T19:39:58.116Z,28.07
2023-01-26T19:42:25.722Z,29.80
2023-01-26T19:44:53.337Z,28.13
2023-01-26T19:47:20.908Z,29.03
2023-01-26T19:49:48.445Z,27.90
2023-01-26T19:52:17.553Z,28.47
2023-01-26T19:54:45.172Z,27.70
2023-01-26T19:57:12.828Z,27.50
2023-01-26T19:59:40.416Z,27.37
2023-01-26T20:02:10.592Z,28.00
2023-01-26T20:04:38.393Z,27.70
2023-01-26T20:07:06.798Z,27.23
2023-01-26T20:09:36.619Z,26.77
2023-01-26T20:12:06.009Z,26.73
2023-01-26T20:14:33.932Z,27.10
2023-01-26T20:17:02.645Z,26.67
2023-01-26T20:19:31.855Z,27.23
2023-01-26T20:21:59.909Z,26.10
2023-01-26T20:24:27.605Z,27.10
2023-01-26T20:26:57.030Z,26.97
2023-01-26T20:29:24.745Z,27.43
2023-01-26T20:31:52.477Z,26.13
2023-01-26T20:34:21.777Z,27.20
2023-01-26T20:36:49.946Z,27.50
2023-01-26T20:39:24.998Z,27.10
2023-01-26T20:41:53.096Z,27.93
2023-01-26T20:44:22.202Z,26.50
2023-01-26T20:46:49.894Z,26.53
2023-01-26T20:49:19.616Z,27.20
2023-01-26T20:51:47.656Z,26.43
2023-01-26T20:54:16.992Z,27.90
2023-01-26T20:56:46.566Z,26.30
2023-01-26T20:59:14.293Z,27.27
2023-01-26T21:01:43.233Z,26.50
2023-01-26T21:04:10.982Z,25.63
2023-01-26T21:06:39.571Z,26.30
2023-01-26T21:09:07.190Z,26.60
2023-01-26T21:11:37.844Z,26.67
2023-01-26T21:14:05.647Z,25.60
2023-01-26T21:16:35.619Z,25.67
2023-01-26T21:19:04.718Z,26.27
2023-01-26T21:21:32.453Z,26.10
2023-01-26T21:24:00.496Z,25.57
2023-01-26T21:26:28.786Z,26.03
2023-01-26T21:28:58.823Z,25.60
2023-01-26T21:31:28.729Z,25.73
2023-01-26T21:33:57.529Z,26.60
2023-01-26T21:36:29.115Z,25.63
2023-01-26T21:38:58.406Z,26.67
2023-01-26T21:41:46.338Z,25.23
2023-01-26T21:44:16.101Z,26.20
2023-01-26T21:46:45.901Z,27.50
2023-01-26T21:49:15.376Z,24.93
2023-01-26T21:52:02.035Z,26.50
2023-01-26T21:54:30.428Z,25.40
2023-01-26T21:56:58.631Z,25.50
2023-01-26T21:59:25.795Z,25.70
2023-01-26T22:01:55.226Z,25.27
2023-01-26T22:04:24.427Z,26.73
2023-01-26T22:06:53.534Z,27.10
2023-01-26T22:09:23.024Z,27.90
2023-01-26T22:11:51.584Z,24.70
2023-01-26T22:14:21.446Z,25.13
2023-01-26T22:16:49.320Z,25.43
2023-01-26T22:19:16.975Z,25.67
2023-01-26T22:21:44.689Z,24.90
2023-01-26T22:24:15.428Z,26.57
2023-01-26T22:26:43.426Z,24.63
2023-01-26T22:29:12.332Z,25.40
2023-01-26T22:31:40.136Z,25.20
2023-01-26T22:34:07.750Z,25.40
2023-01-26T22:36:35.399Z,25.67
2023-01-26T22:39:03.075Z,26.10
2023-01-26T22:41:32.311Z,27.27
2023-01-26T22:44:01.092Z,25.63
2023-01-26T22:46:30.774Z,24.97
2023-01-26T22:48:59.715Z,25.90
2023-01-26T22:51:29.398Z,25.10
2023-01-26T22:53:58.574Z,24.67
2023-01-26T22:56:27.115Z,25.53
2023-01-26T22:59:00.119Z,25.13
2023-01-26T23:01:30.137Z,24.90
2023-01-26T23:03:59.074Z,24.87
2023-01-26T23:06:27.267Z,24.80
2023-01-26T23:08:55.690Z,24.03
2023-01-26T23:11:25.630Z,24.60
2023-01-26T23:13:54.927Z,24.97
2023-01-26T23:16:25.110Z,24.30
2023-01-26T23:18:53.181Z,24.50
2023-01-26T23:21:20.813Z,24.47
2023-01-26T23:23:48.719Z,25.23
2023-01-26T23:26:16.549Z,25.00
2023-01-26T23:28:45.021Z,24.30
2023-01-26T23:31:14.092Z,24.00
2023-01-26T23:33:43.510Z,23.57
2023-01-26T23:36:12.541Z,23.33
2023-01-26T23:38:40.182Z,24.50
2023-01-26T23:41:08.574Z,23.37
2023-01-26T23:43:36.207Z,23.93
2023-01-26T23:46:04.851Z,24.43
2023-01-26T23:48:32.533Z,27.03
2023-01-26T23:51:03.886Z,24.47
2023-01-26T23:53:32.118Z,25.67
2023-01-26T23:56:01.564Z,24.27
2023-01-26T23:58:29.308Z,25.17
